Weather reports worldwide

Advertisment
Isola Gorgona, Italy (16154): temperature & dewpoint: 11.06.2019 20:00:00 - 17.06.2019 20:00:00 (CEST)
Date & Time tt [°C] td [°C]
17.06.2019 20:00:00 - -
17.06.2019 19:00:00 - -
17.06.2019 18:00:00 - -
17.06.2019 17:00:00 - -
17.06.2019 16:00:00 - -
17.06.2019 15:00:00 - -
17.06.2019 14:00:00 - -
17.06.2019 13:00:00 - -
17.06.2019 12:00:00 - -
17.06.2019 11:00:00 - -
17.06.2019 10:00:00 - -
17.06.2019 09:00:00 - -
17.06.2019 08:00:00 - -
17.06.2019 07:00:00 - -
17.06.2019 06:00:00 - -
17.06.2019 05:00:00 - -
17.06.2019 04:00:00 - -
17.06.2019 03:00:00 - -
17.06.2019 02:00:00 - -
17.06.2019 01:00:00 - -
17.06.2019 00:00:00 - -
16.06.2019 23:00:00 - -
16.06.2019 22:00:00 - -
16.06.2019 21:00:00 - -
16.06.2019 20:00:00 - -
16.06.2019 19:00:00 - -
16.06.2019 18:00:00 - -
16.06.2019 17:00:00 - -
16.06.2019 16:00:00 - -
16.06.2019 15:00:00 - -
16.06.2019 14:00:00 - -
16.06.2019 13:00:00 - -
16.06.2019 12:00:00 - -
16.06.2019 11:00:00 - -
16.06.2019 10:00:00 - -
16.06.2019 09:00:00 - -
16.06.2019 08:00:00 - -
16.06.2019 07:00:00 - -
16.06.2019 06:00:00 - -
16.06.2019 05:00:00 - -
16.06.2019 04:00:00 - -
16.06.2019 03:00:00 - -
16.06.2019 02:00:00 - -
16.06.2019 01:00:00 - -
16.06.2019 00:00:00 - -
15.06.2019 23:00:00 - -
15.06.2019 22:00:00 - -
15.06.2019 21:00:00 - -
15.06.2019 20:00:00 - -
15.06.2019 19:00:00 - -
15.06.2019 18:00:00 - -
15.06.2019 17:00:00 - -
15.06.2019 16:00:00 - -
15.06.2019 15:00:00 - -
15.06.2019 14:00:00 - -
15.06.2019 13:00:00 - -
15.06.2019 12:00:00 - -
15.06.2019 11:00:00 - -
15.06.2019 10:00:00 - -
15.06.2019 09:00:00 - -
15.06.2019 08:00:00 17,3 17,2
15.06.2019 07:00:00 16,8 16,7
15.06.2019 06:00:00 17,0 16,9
15.06.2019 05:00:00 17,0 16,9
15.06.2019 04:00:00 17,1 17,0
15.06.2019 03:00:00 17,4 17,3
15.06.2019 02:00:00 17,8 17,7
15.06.2019 01:00:00 18,9 18,8
15.06.2019 00:00:00 19,1 19,0
14.06.2019 23:00:00 19,2 18,8
14.06.2019 22:00:00 19,0 18,9
14.06.2019 21:00:00 19,0 18,9
14.06.2019 20:00:00 20,2 19,1
14.06.2019 19:00:00 20,5 17,3
14.06.2019 18:00:00 21,5 16,4
14.06.2019 17:00:00 21,6 16,9
14.06.2019 16:00:00 23,0 16,2
14.06.2019 15:00:00 23,9 16,1
14.06.2019 14:00:00 23,7 16,4
14.06.2019 13:00:00 26,0 15,3
14.06.2019 12:00:00 25,7 13,1
14.06.2019 11:00:00 24,3 11,6
14.06.2019 10:00:00 21,7 12,2
14.06.2019 09:00:00 21,2 13,3
14.06.2019 08:00:00 20,3 10,1
14.06.2019 07:00:00 19,2 10,4
14.06.2019 06:00:00 19,5 9,9
14.06.2019 05:00:00 19,6 10,3
14.06.2019 04:00:00 20,1 9,9
14.06.2019 03:00:00 19,7 11,4
14.06.2019 02:00:00 18,9 10,9
14.06.2019 01:00:00 19,1 10,1
14.06.2019 00:00:00 19,5 9,0
13.06.2019 23:00:00 19,5 8,7
13.06.2019 22:00:00 19,4 6,8
13.06.2019 21:00:00 18,6 12,1
13.06.2019 20:00:00 19,8 12,0
13.06.2019 19:00:00 20,9 10,9
13.06.2019 18:00:00 23,2 14,4
13.06.2019 17:00:00 21,3 14,1
13.06.2019 16:00:00 21,9 14,0
13.06.2019 15:00:00 22,2 11,8
13.06.2019 14:00:00 21,1 13,4
13.06.2019 13:00:00 20,1 11,5
13.06.2019 12:00:00 19,3 12,3
13.06.2019 11:00:00 17,2 10,5
13.06.2019 10:00:00 16,5 11,0
13.06.2019 09:00:00 15,3 12,4
13.06.2019 08:00:00 14,8 12,9
13.06.2019 07:00:00 14,7 12,8
13.06.2019 06:00:00 14,5 12,0
13.06.2019 05:00:00 14,7 11,6
13.06.2019 04:00:00 14,7 11,1
13.06.2019 03:00:00 14,8 11,2
13.06.2019 02:00:00 15,0 12,1
13.06.2019 01:00:00 15,2 11,5
13.06.2019 00:00:00 15,5 10,8
12.06.2019 23:00:00 15,5 11,0
12.06.2019 22:00:00 15,6 11,5
12.06.2019 21:00:00 16,5 11,0
12.06.2019 20:00:00 17,6 12,2
12.06.2019 19:00:00 18,0 12,4
12.06.2019 18:00:00 18,1 11,6
12.06.2019 17:00:00 18,5 12,8
12.06.2019 16:00:00 18,8 14,2
12.06.2019 15:00:00 19,1 14,3
12.06.2019 14:00:00 19,1 14,5
12.06.2019 13:00:00 18,5 15,5
12.06.2019 12:00:00 17,8 15,7
12.06.2019 11:00:00 17,2 17,1
12.06.2019 10:00:00 16,9 16,8
12.06.2019 09:00:00 17,0 16,9
12.06.2019 08:00:00 16,9 16,8
12.06.2019 07:00:00 17,0 16,9
12.06.2019 06:00:00 16,9 16,8
12.06.2019 05:00:00 17,5 17,4
12.06.2019 04:00:00 17,6 17,5
12.06.2019 03:00:00 17,7 17,6
12.06.2019 02:00:00 17,9 17,8
12.06.2019 01:00:00 17,9 17,8
12.06.2019 00:00:00 18,0 17,9
11.06.2019 23:00:00 18,1 18,0
11.06.2019 22:00:00 17,9 17,8
11.06.2019 21:00:00 17,9 17,8
11.06.2019 20:00:00 18,4 18,3

tt = temperature
td = dewpoint

Next stations